Time;durP1;ratioP1;P1;durP2;ratioP2;P2;SDS_P1;SDS_P2;PMS_P1;PMS_P2;Temp;Humidity;BMP_temperature;BMP_pressure;BME280_temperature;BME280_humidity;BME280_pressure;Samples;Min_cycle;Max_cycle;Signal;HPM_P1;HPM_P2
2022/01/06 00:01:06;;;;;;;12.50;2.93;;;3.50;1.00;;;;;;5113137;28;20208;-60
2022/01/06 00:03:33;;;;;;;12.20;3.43;;;3.50;1.00;;;;;;5112185;28;20604;-59
2022/01/06 00:06:05;;;;;;;12.90;4.03;;;3.50;1.00;;;;;;5111837;28;20585;-58
2022/01/06 00:08:33;;;;;;;13.70;3.80;;;3.50;1.00;;;;;;5112020;28;20212;-59
2022/01/06 00:11:00;;;;;;;15.03;3.63;;;3.50;1.00;;;;;;5111754;28;20303;-59
2022/01/06 00:13:34;;;;;;;9.77;3.63;;;3.60;1.00;;;;;;5111973;28;20254;-58
2022/01/06 00:16:12;;;;;;;9.47;3.40;;;3.60;1.00;;;;;;5114581;28;20679;-59
2022/01/06 00:24:07;;;;;;;14.57;3.07;;;3.50;1.00;;;;;;5115749;28;20278;-56
2022/01/06 00:26:34;;;;;;;11.37;3.00;;;3.50;1.00;;;;;;5115764;27;20203;-59
2022/01/06 00:29:02;;;;;;;16.90;3.50;;;3.50;1.00;;;;;;5115544;28;20220;-57
2022/01/06 00:31:28;;;;;;;13.67;3.77;;;3.50;1.00;;;;;;5116117;28;20205;-59
2022/01/06 00:33:55;;;;;;;15.07;4.20;;;3.50;1.00;;;;;;5115385;28;20562;-58
2022/01/06 00:36:22;;;;;;;11.37;3.40;;;3.50;1.00;;;;;;5116271;28;20207;-59
2022/01/06 00:38:49;;;;;;;16.47;3.90;;;3.50;1.00;;;;;;5116600;28;20256;-59
2022/01/06 00:41:15;;;;;;;14.53;3.57;;;3.50;1.00;;;;;;5117135;28;20576;-59
2022/01/06 00:43:42;;;;;;;10.63;3.23;;;3.50;1.00;;;;;;5118517;28;20212;-59
2022/01/06 00:46:10;;;;;;;10.80;2.83;;;3.50;1.00;;;;;;5116502;28;20532;-58
2022/01/06 00:48:37;;;;;;;14.93;3.37;;;3.50;1.00;;;;;;5115095;28;20227;-58
2022/01/06 00:51:04;;;;;;;18.33;3.87;;;3.40;1.00;;;;;;5115399;28;20200;-59
2022/01/06 00:53:31;;;;;;;17.93;3.63;;;3.40;1.00;;;;;;5115347;28;20449;-60
2022/01/06 00:55:57;;;;;;;11.77;3.30;;;3.40;1.00;;;;;;5115234;28;20204;-57
2022/01/06 00:58:24;;;;;;;14.27;3.53;;;3.40;1.00;;;;;;5114930;28;20200;-57
2022/01/06 01:00:51;;;;;;;16.97;4.23;;;3.40;1.00;;;;;;5115226;28;20485;-59
2022/01/06 01:03:21;;;;;;;13.40;3.77;;;3.40;1.00;;;;;;5114828;28;20498;-59
2022/01/06 01:05:50;;;;;;;14.93;3.20;;;3.30;1.00;;;;;;5115368;27;20200;-59
2022/01/06 01:08:17;;;;;;;14.13;3.10;;;3.30;1.00;;;;;;5114741;28;20237;-59
2022/01/06 01:10:46;;;;;;;11.83;3.07;;;3.20;1.00;;;;;;5115330;28;20453;-59
2022/01/06 01:13:13;;;;;;;15.77;2.97;;;3.20;1.00;;;;;;5114980;28;20200;-58
2022/01/06 01:15:45;;;;;;;17.13;3.63;;;3.20;1.00;;;;;;5114889;28;20204;-59
2022/01/06 01:18:14;;;;;;;8.53;2.80;;;3.20;1.00;;;;;;5114539;28;20446;-58
2022/01/06 01:20:42;;;;;;;12.20;3.50;;;3.10;1.00;;;;;;5114283;28;20488;-58
2022/01/06 01:23:08;;;;;;;13.73;3.23;;;3.00;1.00;;;;;;5115024;27;20498;-59
2022/01/06 01:25:35;;;;;;;17.77;3.67;;;3.10;1.00;;;;;;5114418;28;20498;-57
2022/01/06 01:28:04;;;;;;;19.07;3.53;;;3.10;1.00;;;;;;5114245;28;20519;-59
2022/01/06 01:30:39;;;;;;;12.83;3.10;;;3.00;1.00;;;;;;5114366;28;20565;-59
2022/01/06 01:33:14;;;;;;;9.27;3.07;;;3.00;1.00;;;;;;5114411;28;20449;-60
2022/01/06 01:35:42;;;;;;;18.23;3.60;;;3.00;1.00;;;;;;5114846;28;20957;-59
2022/01/06 01:38:09;;;;;;;16.40;3.20;;;3.00;1.00;;;;;;5113971;28;21012;-59
2022/01/06 01:40:35;;;;;;;14.20;3.50;;;2.90;1.00;;;;;;5114165;28;20492;-59
2022/01/06 01:43:02;;;;;;;17.53;4.03;;;3.00;1.00;;;;;;5114484;28;20495;-59
2022/01/06 01:45:32;;;;;;;15.00;3.20;;;2.90;1.00;;;;;;5114089;28;20457;-58
2022/01/06 01:48:03;;;;;;;14.83;3.27;;;2.90;1.00;;;;;;5114005;28;20225;-59
2022/01/06 01:50:30;;;;;;;14.83;3.57;;;2.90;1.00;;;;;;5114166;28;20475;-59
2022/01/06 01:52:59;;;;;;;19.70;3.23;;;2.90;1.00;;;;;;5114079;28;20264;-58
2022/01/06 01:55:28;;;;;;;18.87;3.53;;;2.90;1.00;;;;;;5113764;28;20234;-59
2022/01/06 01:57:55;;;;;;;17.00;3.07;;;3.00;1.00;;;;;;5113862;28;20449;-58
2022/01/06 02:00:27;;;;;;;14.50;2.80;;;3.00;1.00;;;;;;5113888;28;20227;-59
2022/01/06 02:02:54;;;;;;;14.53;3.57;;;3.00;1.00;;;;;;5113799;28;20858;-59
2022/01/06 02:05:25;;;;;;;16.53;3.67;;;3.00;1.00;;;;;;5113971;28;20506;-59
2022/01/06 02:07:53;;;;;;;17.07;3.27;;;3.00;1.00;;;;;;5113511;28;20480;-59
2022/01/06 02:10:22;;;;;;;21.23;3.57;;;3.00;1.00;;;;;;5113868;28;20277;-58
2022/01/06 02:12:52;;;;;;;16.70;2.83;;;3.00;1.00;;;;;;5113481;28;20939;-58
2022/01/06 02:15:19;;;;;;;12.23;2.93;;;3.00;1.00;;;;;;5113795;28;20446;-59
2022/01/06 02:17:47;;;;;;;18.33;3.10;;;3.00;1.00;;;;;;5113476;28;20856;-58
2022/01/06 02:20:17;;;;;;;12.37;3.70;;;3.00;1.00;;;;;;5113074;28;20526;-60
2022/01/06 02:22:44;;;;;;;17.27;3.23;;;3.00;1.00;;;;;;5113786;28;20207;-57
2022/01/06 02:25:13;;;;;;;11.77;3.17;;;3.00;1.00;;;;;;5113371;28;20454;-59
2022/01/06 02:27:40;;;;;;;11.90;3.07;;;3.00;1.00;;;;;;5113458;28;20450;-57
2022/01/06 02:30:09;;;;;;;13.40;2.60;;;3.00;1.00;;;;;;5113024;27;20454;-58
2022/01/06 02:32:36;;;;;;;18.70;3.53;;;3.00;1.00;;;;;;5113224;28;20476;-58
2022/01/06 02:35:05;;;;;;;14.17;3.37;;;3.00;1.00;;;;;;5113486;28;20449;-58
2022/01/06 02:37:34;;;;;;;17.03;3.77;;;3.00;1.00;;;;;;5112226;28;20742;-57
2022/01/06 02:40:00;;;;;;;20.13;3.37;;;3.00;1.00;;;;;;5113201;28;20564;-58
2022/01/06 02:42:28;;;;;;;10.53;3.30;;;3.00;1.00;;;;;;5112903;28;20688;-57
2022/01/06 02:44:55;;;;;;;13.00;3.43;;;3.00;1.00;;;;;;5112904;28;20996;-57
2022/01/06 02:47:22;;;;;;;12.90;3.10;;;3.00;1.00;;;;;;5112949;28;20457;-57
2022/01/06 02:49:48;;;;;;;12.80;3.13;;;3.00;1.00;;;;;;5112921;28;20465;-57
2022/01/06 02:52:15;;;;;;;16.07;2.87;;;3.00;1.00;;;;;;5113066;28;20502;-58
2022/01/06 02:54:43;;;;;;;10.13;2.50;;;3.00;1.00;;;;;;5113355;28;20260;-57
2022/01/06 02:57:10;;;;;;;10.57;2.60;;;3.00;1.00;;;;;;5113287;28;20208;-58
2022/01/06 02:59:36;;;;;;;16.07;2.70;;;3.00;1.00;;;;;;5113033;28;20676;-57
2022/01/06 03:02:03;;;;;;;8.83;2.27;;;3.10;1.00;;;;;;5112900;28;20683;-58
2022/01/06 03:04:30;;;;;;;9.33;2.33;;;3.00;1.00;;;;;;5113290;28;20798;-58
2022/01/06 03:06:57;;;;;;;15.77;2.87;;;3.10;1.00;;;;;;5112791;28;20211;-56
2022/01/06 03:09:36;;;;;;;15.57;2.60;;;3.00;1.00;;;;;;5112868;28;20461;-57
2022/01/06 03:12:05;;;;;;;13.17;2.50;;;3.00;1.00;;;;;;5112642;28;20896;-57
2022/01/06 03:14:32;;;;;;;10.80;2.47;;;3.00;1.00;;;;;;5112437;28;20302;-58
2022/01/06 03:16:59;;;;;;;15.57;2.83;;;3.10;1.00;;;;;;5112554;28;20295;-56
2022/01/06 03:19:26;;;;;;;18.23;2.90;;;3.10;1.00;;;;;;5112639;28;20268;-57
2022/01/06 03:21:52;;;;;;;14.40;2.47;;;3.00;1.00;;;;;;5112376;28;20697;-57
2022/01/06 03:24:20;;;;;;;15.00;2.67;;;3.10;1.00;;;;;;5112498;28;20211;-58
2022/01/06 03:26:46;;;;;;;16.70;2.73;;;3.10;1.00;;;;;;5112495;28;20446;-57
2022/01/06 03:29:15;;;;;;;16.43;2.37;;;2.90;1.00;;;;;;5112327;28;20530;-57
2022/01/06 03:31:41;;;;;;;13.97;2.00;;;2.90;1.00;;;;;;5112885;28;20438;-58
2022/01/06 03:34:08;;;;;;;9.30;2.43;;;2.90;1.00;;;;;;5112694;28;20499;-59
2022/01/06 03:36:35;;;;;;;12.23;2.50;;;2.80;1.00;;;;;;5112541;28;20524;-58
2022/01/06 03:39:02;;;;;;;24.23;2.70;;;2.80;1.00;;;;;;5112274;28;20473;-58
2022/01/06 03:41:28;;;;;;;12.10;2.63;;;2.80;1.00;;;;;;5111954;28;20224;-58
2022/01/06 03:43:55;;;;;;;6.93;2.10;;;2.80;1.00;;;;;;5112454;28;20445;-57
2022/01/06 03:46:23;;;;;;;14.60;2.27;;;2.80;1.00;;;;;;5111908;28;20465;-58
2022/01/06 03:48:50;;;;;;;9.10;2.50;;;2.80;1.00;;;;;;5112167;28;20472;-57
2022/01/06 03:51:20;;;;;;;7.20;2.20;;;2.70;1.00;;;;;;5115744;28;20869;-56
2022/01/06 03:53:47;;;;;;;12.17;2.90;;;2.60;1.00;;;;;;5116491;28;20449;-57
2022/01/06 03:56:14;;;;;;;13.50;2.90;;;2.50;1.00;;;;;;5116247;28;20448;-55
2022/01/06 03:58:40;;;;;;;13.47;3.00;;;2.40;1.00;;;;;;5116287;28;20492;-58
2022/01/06 04:01:07;;;;;;;17.10;3.13;;;2.40;1.00;;;;;;5116303;28;20481;-57
2022/01/06 04:03:35;;;;;;;13.23;3.13;;;2.40;1.00;;;;;;5117684;28;20445;-54
2022/01/06 04:06:02;;;;;;;18.73;2.93;;;2.50;1.00;;;;;;5117107;28;20506;-57
2022/01/06 04:08:28;;;;;;;10.53;2.67;;;2.50;1.00;;;;;;5116330;28;20935;-58
2022/01/06 04:10:55;;;;;;;13.87;2.80;;;2.50;1.00;;;;;;5116168;28;20475;-58
2022/01/06 04:13:22;;;;;;;18.60;3.33;;;2.40;1.00;;;;;;5116325;28;20457;-57
2022/01/06 04:15:49;;;;;;;12.10;2.77;;;2.40;1.00;;;;;;5115890;27;20504;-57
2022/01/06 04:18:16;;;;;;;21.93;3.13;;;2.40;1.00;;;;;;5115774;28;20449;-57
2022/01/06 04:20:44;;;;;;;14.80;2.70;;;2.40;1.00;;;;;;5115835;28;20477;-57
2022/01/06 04:23:10;;;;;;;13.57;3.37;;;2.30;1.00;;;;;;5115652;28;20449;-57
2022/01/06 04:25:37;;;;;;;14.33;2.90;;;2.20;1.00;;;;;;5115927;28;20451;-57
2022/01/06 04:28:04;;;;;;;17.30;3.17;;;2.30;1.00;;;;;;5115568;28;20474;-58
2022/01/06 04:30:31;;;;;;;16.87;3.33;;;2.30;1.00;;;;;;5115662;28;20468;-58
2022/01/06 04:32:57;;;;;;;14.80;2.60;;;2.30;1.00;;;;;;5115479;28;20437;-57
2022/01/06 04:35:24;;;;;;;11.90;3.17;;;2.20;1.00;;;;;;5115656;28;20452;-57
2022/01/06 04:37:52;;;;;;;12.07;3.13;;;2.10;1.00;;;;;;5115503;28;20445;-57
2022/01/06 04:40:19;;;;;;;9.17;3.27;;;2.10;1.00;;;;;;5115289;28;20514;-57
2022/01/06 04:42:45;;;;;;;14.67;3.00;;;2.10;1.00;;;;;;5115639;28;20900;-58
2022/01/06 04:45:12;;;;;;;13.90;2.67;;;2.10;1.00;;;;;;5115147;27;20468;-58
2022/01/06 04:47:39;;;;;;;11.90;2.90;;;2.10;1.00;;;;;;5115175;28;20478;-56
2022/01/06 04:50:06;;;;;;;17.03;3.23;;;2.10;1.00;;;;;;5115189;27;20999;-57
2022/01/06 04:52:33;;;;;;;14.57;2.50;;;2.00;1.00;;;;;;5115752;28;20786;-57
2022/01/06 04:55:01;;;;;;;15.17;2.67;;;2.00;1.00;;;;;;5115587;28;20446;-58
2022/01/06 04:57:28;;;;;;;44.37;15.10;;;2.00;1.00;;;;;;5114967;27;20441;-55
2022/01/06 04:59:55;;;;;;;32.70;8.80;;;1.90;1.00;;;;;;5115119;28;20491;-57
2022/01/06 05:02:21;;;;;;;17.83;3.03;;;2.00;1.00;;;;;;5114482;28;20481;-57
2022/01/06 05:04:48;;;;;;;12.63;2.83;;;1.90;1.00;;;;;;5114956;28;20506;-58
2022/01/06 05:07:14;;;;;;;15.90;3.10;;;1.90;1.00;;;;;;5114865;27;20449;-56
2022/01/06 05:09:41;;;;;;;10.87;2.57;;;1.90;1.00;;;;;;5115068;28;20473;-57
2022/01/06 05:12:09;;;;;;;13.13;2.20;;;1.90;1.00;;;;;;5113880;27;20452;-58
2022/01/06 05:14:36;;;;;;;14.67;2.73;;;1.90;1.00;;;;;;5111799;28;20531;-58
2022/01/06 05:17:03;;;;;;;19.47;3.17;;;1.90;1.00;;;;;;5114514;28;20441;-57
2022/01/06 05:19:30;;;;;;;9.97;2.10;;;1.90;1.00;;;;;;5114011;28;20462;-57
2022/01/06 05:21:58;;;;;;;18.07;2.83;;;1.90;1.00;;;;;;5114546;28;20488;-56
2022/01/06 05:24:25;;;;;;;11.83;2.87;;;1.80;1.00;;;;;;5114838;28;20485;-57
2022/01/06 05:26:54;;;;;;;8.93;2.00;;;1.80;1.00;;;;;;5114314;28;20453;-57
2022/01/06 05:29:23;;;;;;;25.80;11.83;;;1.80;1.00;;;;;;5114522;28;20469;-56
2022/01/06 05:31:50;;;;;;;13.07;3.40;;;1.70;1.00;;;;;;5113983;28;20510;-58
2022/01/06 05:34:17;;;;;;;14.37;3.20;;;1.70;1.00;;;;;;5114576;28;20847;-57
2022/01/06 05:36:44;;;;;;;6.67;2.50;;;1.70;1.00;;;;;;5114356;28;20456;-58
2022/01/06 05:39:10;;;;;;;10.27;2.33;;;1.70;1.00;;;;;;5113904;28;21210;-56
2022/01/06 05:41:37;;;;;;;13.90;2.80;;;1.70;1.00;;;;;;5114252;27;20896;-56
2022/01/06 05:44:05;;;;;;;16.47;2.67;;;1.60;1.00;;;;;;5113925;28;21000;-59
2022/01/06 05:46:33;;;;;;;17.13;2.97;;;1.60;1.00;;;;;;5113890;28;20459;-57
2022/01/06 05:48:59;;;;;;;10.77;2.30;;;1.60;1.00;;;;;;5114013;28;20871;-56
2022/01/06 05:51:26;;;;;;;11.73;3.17;;;1.60;1.00;;;;;;5113812;28;20981;-57
2022/01/06 05:53:53;;;;;;;9.50;2.57;;;1.60;1.00;;;;;;5114080;28;21005;-58
2022/01/06 05:56:20;;;;;;;10.33;2.33;;;1.60;1.00;;;;;;5113649;28;20814;-57
2022/01/06 05:58:47;;;;;;;12.10;3.03;;;1.50;1.00;;;;;;5113960;28;20462;-56
2022/01/06 06:01:14;;;;;;;14.47;2.60;;;1.50;1.00;;;;;;5113472;28;21030;-58
2022/01/06 06:03:42;;;;;;;13.33;3.37;;;1.50;1.00;;;;;;5113974;28;20453;-57
2022/01/06 06:06:08;;;;;;;18.63;2.93;;;1.50;1.00;;;;;;5113872;28;20446;-56
2022/01/06 06:08:35;;;;;;;10.47;3.23;;;1.50;1.00;;;;;;5113444;28;20449;-57
2022/01/06 06:11:02;;;;;;;17.10;3.37;;;1.50;1.00;;;;;;5113720;28;20514;-59
2022/01/06 06:13:28;;;;;;;12.33;2.73;;;1.60;1.00;;;;;;5112715;28;20491;-59
2022/01/06 06:15:55;;;;;;;18.37;3.23;;;1.60;1.00;;;;;;5113934;28;20449;-61
2022/01/06 06:18:22;;;;;;;10.97;3.17;;;1.60;1.00;;;;;;5108062;28;20503;-66
2022/01/06 06:20:50;;;;;;;17.37;3.53;;;1.60;1.00;;;;;;5112311;28;20485;-61
2022/01/06 06:23:17;;;;;;;14.73;3.30;;;1.70;1.00;;;;;;5113246;28;20453;-61
2022/01/06 06:25:43;;;;;;;15.17;3.10;;;1.70;1.00;;;;;;5112829;28;20453;-62
2022/01/06 06:28:10;;;;;;;11.17;3.50;;;1.70;1.00;;;;;;5112885;28;20528;-61
2022/01/06 06:30:37;;;;;;;15.50;3.67;;;1.70;1.00;;;;;;5113606;28;20466;-63
2022/01/06 06:33:03;;;;;;;13.57;3.53;;;1.70;1.00;;;;;;5113800;28;20457;-63
2022/01/06 06:35:31;;;;;;;11.00;3.83;;;1.60;1.00;;;;;;5113745;28;20867;-61
2022/01/06 06:37:59;;;;;;;15.53;3.80;;;1.60;1.00;;;;;;5113986;28;20454;-61
2022/01/06 06:40:26;;;;;;;15.27;4.53;;;1.70;1.00;;;;;;5112849;28;20473;-59
2022/01/06 06:42:53;;;;;;;18.03;4.30;;;1.70;1.00;;;;;;5111719;28;20477;-61
2022/01/06 06:45:22;;;;;;;18.93;3.87;;;1.70;1.00;;;;;;5112381;28;20457;-61
2022/01/06 06:47:48;;;;;;;17.83;4.30;;;1.70;1.00;;;;;;5112717;28;20822;-62
2022/01/06 06:50:15;;;;;;;15.93;3.93;;;1.80;1.00;;;;;;5112259;28;20464;-62
2022/01/06 06:52:42;;;;;;;16.47;4.53;;;1.70;1.00;;;;;;5112720;28;20824;-60
2022/01/06 06:55:11;;;;;;;17.03;4.03;;;1.70;1.00;;;;;;5112414;28;20445;-61
2022/01/06 06:57:38;;;;;;;11.17;4.03;;;1.70;1.00;;;;;;5112428;28;20450;-64
2022/01/06 07:00:06;;;;;;;9.67;3.73;;;1.80;1.00;;;;;;5112157;28;20469;-61
2022/01/06 07:02:33;;;;;;;11.53;4.23;;;1.80;1.00;;;;;;5112286;28;20483;-64
2022/01/06 07:05:00;;;;;;;16.00;4.20;;;1.80;1.00;;;;;;5112681;28;20441;-62
2022/01/06 07:07:27;;;;;;;12.57;3.80;;;1.80;1.00;;;;;;5112287;28;20446;-60
2022/01/06 07:09:54;;;;;;;14.73;3.73;;;1.80;1.00;;;;;;5111909;28;20469;-63
2022/01/06 07:12:22;;;;;;;15.83;4.03;;;1.80;1.00;;;;;;5113911;28;20445;-58
2022/01/06 07:14:49;;;;;;;17.77;3.43;;;1.80;1.00;;;;;;5112499;28;21097;-59
2022/01/06 07:17:15;;;;;;;20.60;4.27;;;1.80;1.00;;;;;;5113113;28;20502;-58
2022/01/06 07:19:42;;;;;;;8.60;3.33;;;1.80;1.00;;;;;;5112570;28;20476;-63
2022/01/06 07:22:09;;;;;;;20.47;4.70;;;1.80;1.00;;;;;;5113550;28;20796;-63
2022/01/06 07:24:36;;;;;;;13.27;4.30;;;1.70;1.00;;;;;;5113013;28;20909;-62
2022/01/06 07:27:03;;;;;;;16.30;4.07;;;1.70;1.00;;;;;;5112276;28;20544;-60
2022/01/06 07:29:31;;;;;;;12.33;4.10;;;1.70;1.00;;;;;;5112396;28;20868;-59
2022/01/06 07:31:58;;;;;;;16.10;4.50;;;1.60;1.00;;;;;;5112671;28;20448;-59
2022/01/06 07:34:25;;;;;;;13.20;3.60;;;1.60;1.00;;;;;;5112028;28;20449;-59
2022/01/06 07:36:52;;;;;;;11.23;4.23;;;1.60;1.00;;;;;;5111730;28;20445;-59
2022/01/06 07:39:18;;;;;;;15.57;4.23;;;1.50;1.00;;;;;;5111712;28;20465;-59
2022/01/06 07:41:45;;;;;;;15.37;4.70;;;1.50;1.00;;;;;;5111766;28;21051;-60
2022/01/06 07:44:12;;;;;;;18.37;4.70;;;1.40;1.00;;;;;;5111894;28;20798;-60
2022/01/06 07:46:42;;;;;;;12.67;4.00;;;1.40;1.00;;;;;;5111688;28;20469;-61
2022/01/06 07:49:09;;;;;;;11.03;3.83;;;1.40;1.00;;;;;;5111602;28;20469;-59
2022/01/06 07:51:35;;;;;;;17.40;4.67;;;1.40;1.00;;;;;;5111350;28;20449;-60
2022/01/06 07:54:02;;;;;;;14.87;4.47;;;1.50;1.00;;;;;;5111952;28;20448;-60
2022/01/06 07:56:29;;;;;;;12.60;4.67;;;1.50;1.00;;;;;;5111480;28;20495;-61
2022/01/06 07:58:57;;;;;;;17.37;4.60;;;1.50;1.00;;;;;;5111614;28;20502;-57
2022/01/06 08:01:24;;;;;;;14.13;5.10;;;1.50;1.00;;;;;;5111419;28;20482;-59
2022/01/06 08:03:53;;;;;;;16.83;4.90;;;1.50;1.00;;;;;;5111589;28;20867;-59
2022/01/06 08:06:20;;;;;;;19.33;5.97;;;1.40;1.00;;;;;;5112265;28;20502;-55
2022/01/06 08:08:47;;;;;;;11.47;4.93;;;1.30;1.00;;;;;;5111287;28;20882;-55
2022/01/06 08:11:14;;;;;;;13.27;4.73;;;1.30;1.00;;;;;;5111745;28;20501;-58
2022/01/06 08:13:41;;;;;;;20.97;4.87;;;1.40;1.00;;;;;;5111427;28;20445;-59
2022/01/06 08:16:08;;;;;;;14.27;5.43;;;1.40;1.00;;;;;;5111624;28;20448;-60
2022/01/06 08:18:34;;;;;;;21.53;4.77;;;1.30;1.00;;;;;;5111151;28;20633;-56
2022/01/06 08:21:03;;;;;;;18.13;5.40;;;1.30;1.00;;;;;;5111435;28;20453;-59
2022/01/06 08:23:29;;;;;;;17.87;5.47;;;1.30;1.00;;;;;;5111516;28;20445;-59
2022/01/06 08:25:56;;;;;;;16.10;5.30;;;1.30;1.00;;;;;;5111321;28;20453;-57
2022/01/06 08:28:23;;;;;;;15.30;5.83;;;1.30;1.00;;;;;;5111367;28;20875;-63
2022/01/06 08:30:50;;;;;;;12.50;4.97;;;1.30;1.00;;;;;;5111567;28;20494;-65
2022/01/06 08:33:16;;;;;;;12.53;4.90;;;1.30;1.00;;;;;;5110983;28;20498;-64
2022/01/06 08:35:43;;;;;;;13.27;5.07;;;1.30;1.00;;;;;;5112219;28;20460;-63
2022/01/06 08:38:11;;;;;;;14.17;5.50;;;1.30;1.00;;;;;;5114821;28;20449;-63
2022/01/06 08:40:38;;;;;;;23.87;5.50;;;1.40;1.00;;;;;;5115006;28;20529;-63
2022/01/06 08:43:05;;;;;;;22.97;6.43;;;1.40;1.00;;;;;;5114846;28;20485;-62
2022/01/06 08:45:33;;;;;;;11.60;5.40;;;1.40;1.00;;;;;;5114896;28;20470;-62
2022/01/06 08:48:01;;;;;;;16.67;5.23;;;1.40;1.00;;;;;;5114719;28;21049;-62
2022/01/06 08:50:28;;;;;;;17.23;5.43;;;1.40;1.00;;;;;;5114594;28;20567;-62
2022/01/06 08:52:55;;;;;;;19.10;5.70;;;1.50;1.00;;;;;;5114913;28;20445;-62
2022/01/06 08:55:25;;;;;;;17.67;6.70;;;1.50;1.00;;;;;;5114674;28;20472;-62
2022/01/06 08:57:52;;;;;;;20.10;5.90;;;1.50;1.00;;;;;;5114772;28;20950;-61
2022/01/06 09:00:19;;;;;;;17.87;6.03;;;1.50;1.00;;;;;;5114544;28;20822;-62
2022/01/06 09:02:46;;;;;;;19.67;6.17;;;1.50;1.00;;;;;;5114807;28;20485;-59
2022/01/06 09:05:14;;;;;;;11.67;5.83;;;1.50;1.00;;;;;;5114813;28;20449;-61
2022/01/06 09:07:41;;;;;;;17.37;5.90;;;1.60;1.00;;;;;;5114325;28;20460;-58
2022/01/06 09:10:09;;;;;;;17.23;5.80;;;1.60;1.00;;;;;;5114345;28;20538;-56
2022/01/06 09:12:37;;;;;;;13.97;5.87;;;1.50;1.00;;;;;;5114454;28;20445;-60
2022/01/06 09:15:06;;;;;;;13.93;5.37;;;1.50;1.00;;;;;;5114421;28;20449;-61
2022/01/06 09:17:35;;;;;;;19.87;6.17;;;1.50;1.00;;;;;;5114419;28;20441;-60
2022/01/06 09:20:02;;;;;;;12.03;5.27;;;1.50;1.00;;;;;;5113726;28;20469;-60
2022/01/06 09:22:28;;;;;;;14.20;6.17;;;1.50;1.00;;;;;;5114179;28;20477;-60
2022/01/06 09:24:55;;;;;;;19.00;5.97;;;1.60;1.00;;;;;;5114218;28;20536;-60
2022/01/06 09:27:23;;;;;;;22.43;7.63;;;1.60;1.00;;;;;;5113967;28;20460;-59
2022/01/06 09:29:52;;;;;;;26.10;7.60;;;1.70;1.00;;;;;;5114156;27;20557;-64
2022/01/06 09:32:19;;;;;;;17.30;6.13;;;1.80;1.00;;;;;;5114234;28;20536;-65
2022/01/06 09:34:46;;;;;;;19.17;7.70;;;1.80;1.00;;;;;;5114364;28;20466;-64
2022/01/06 09:37:12;;;;;;;18.33;6.97;;;1.90;1.00;;;;;;5113576;27;21013;-65
2022/01/06 09:39:40;;;;;;;17.03;7.20;;;2.00;1.00;;;;;;5114041;28;20492;-62
2022/01/06 09:42:07;;;;;;;21.23;8.63;;;2.10;1.00;;;;;;5114082;28;21215;-63
2022/01/06 09:44:34;;;;;;;26.17;7.70;;;2.20;1.00;;;;;;5114254;28;20458;-62
2022/01/06 09:47:03;;;;;;;15.27;7.23;;;2.30;1.00;;;;;;5113812;28;20506;-63
2022/01/06 09:49:31;;;;;;;22.70;7.60;;;2.30;1.00;;;;;;5113271;28;20472;-62
2022/01/06 09:52:00;;;;;;;23.30;8.57;;;2.40;1.00;;;;;;5113862;27;20459;-71
2022/01/06 09:54:27;;;;;;;25.80;8.87;;;2.70;1.00;;;;;;5113791;28;20453;-71
2022/01/06 09:56:53;;;;;;;30.90;8.30;;;2.90;1.00;;;;;;5114014;28;20458;-71
2022/01/06 09:59:20;;;;;;;17.03;7.47;;;3.10;1.00;;;;;;5113476;28;20477;-60
2022/01/06 10:01:47;;;;;;;23.17;8.43;;;3.30;1.00;;;;;;5113928;28;20448;-60
2022/01/06 10:04:25;;;;;;;26.17;7.77;;;3.30;1.00;;;;;;5113939;28;20825;-63
2022/01/06 10:07:00;;;;;;;20.23;7.30;;;3.20;1.00;;;;;;5112881;28;20750;-63
2022/01/06 10:09:26;;;;;;;22.47;7.07;;;3.30;1.00;;;;;;5113489;28;20228;-63
2022/01/06 10:11:56;;;;;;;17.23;7.23;;;3.30;1.00;;;;;;5113086;28;20947;-63
2022/01/06 10:14:31;;;;;;;11.10;5.70;;;3.30;1.00;;;;;;5113556;28;20231;-63
2022/01/06 10:16:59;;;;;;;20.07;6.07;;;3.30;1.00;;;;;;5113236;28;20200;-64
2022/01/06 10:19:27;;;;;;;19.13;6.07;;;3.30;1.00;;;;;;5113352;28;20227;-64
2022/01/06 10:21:58;;;;;;;20.30;5.90;;;3.40;1.00;;;;;;5113244;28;20276;-61
2022/01/06 10:24:26;;;;;;;12.67;5.30;;;3.50;1.00;;;;;;5113143;28;20442;-62
2022/01/06 10:26:55;;;;;;;12.03;5.10;;;3.50;1.00;;;;;;5113233;27;20216;-61
2022/01/06 10:29:24;;;;;;;26.80;5.17;;;3.60;1.00;;;;;;5112415;28;20224;-61
2022/01/06 10:31:51;;;;;;;14.90;5.50;;;3.60;1.00;;;;;;5113129;28;20253;-61
2022/01/06 10:34:18;;;;;;;12.37;5.60;;;3.70;1.00;;;;;;5113158;28;20448;-62
2022/01/06 10:36:48;;;;;;;17.40;5.07;;;3.80;1.00;;;;;;5112624;28;20214;-63
2022/01/06 10:39:15;;;;;;;16.50;5.23;;;3.80;1.00;;;;;;5112709;28;20257;-62
2022/01/06 10:41:42;;;;;;;18.87;5.60;;;3.90;1.00;;;;;;5112817;28;20213;-62
2022/01/06 10:44:13;;;;;;;19.17;4.73;;;4.00;1.00;;;;;;5113144;28;20250;-62
2022/01/06 10:46:43;;;;;;;18.93;5.27;;;4.00;1.00;;;;;;5112787;28;20220;-62
2022/01/06 10:49:12;;;;;;;17.17;4.53;;;4.10;1.00;;;;;;5113386;28;20229;-60
2022/01/06 10:51:42;;;;;;;17.70;5.07;;;4.20;1.00;;;;;;5113008;28;20208;-60
2022/01/06 10:54:17;;;;;;;18.37;4.53;;;4.20;99.90;;;;;;5112782;28;20207;-61
2022/01/06 10:56:55;;;;;;;15.10;5.43;;;4.20;99.90;;;;;;5113153;28;20211;-63
2022/01/06 10:59:24;;;;;;;14.50;4.70;;;4.20;99.90;;;;;;5112609;28;20229;-63
2022/01/06 11:01:51;;;;;;;20.30;5.53;;;4.10;99.90;;;;;;5113333;28;20205;-60
2022/01/06 11:04:18;;;;;;;22.93;6.40;;;3.90;99.90;;;;;;5112961;28;20229;-63
2022/01/06 11:06:51;;;;;;;13.97;5.03;;;4.10;1.00;;;;;;5113444;27;20204;-71
2022/01/06 11:09:35;;;;;;;17.50;5.27;;;4.10;1.00;;;;;;5112932;28;20221;-72
2022/01/06 11:14:47;;;;;;;14.73;4.67;;;4.10;99.90;;;;;;5112284;28;20696;-62
2022/01/06 11:17:14;;;;;;;16.83;5.07;;;4.20;99.90;;;;;;5111933;28;20304;-64
2022/01/06 11:19:40;;;;;;;15.47;5.63;;;4.30;99.90;;;;;;5112013;28;20711;-63
2022/01/06 11:22:09;;;;;;;10.87;4.40;;;4.20;99.90;;;;;;5111992;28;20216;-62
2022/01/06 11:24:38;;;;;;;14.63;4.83;;;4.30;99.90;;;;;;5112636;28;20233;-63
2022/01/06 11:27:08;;;;;;;10.67;4.40;;;4.30;99.90;;;;;;5112228;28;20261;-61
2022/01/06 11:29:37;;;;;;;15.43;4.57;;;4.30;99.90;;;;;;5111764;28;20229;-62
2022/01/06 11:32:06;;;;;;;16.87;5.87;;;4.20;99.90;;;;;;5112317;28;20204;-62
2022/01/06 11:34:38;;;;;;;15.27;6.67;;;4.20;99.90;;;;;;5110886;28;20212;-61
2022/01/06 11:37:10;;;;;;;16.07;6.40;;;4.00;99.90;;;;;;5112084;28;20646;-62
2022/01/06 11:39:38;;;;;;;15.67;7.90;;;3.90;99.90;;;;;;5111753;28;20240;-64
2022/01/06 11:42:15;;;;;;;22.07;9.50;;;3.80;1.00;;;;;;5112774;28;20208;-63
2022/01/06 11:44:50;;;;;;;17.13;8.70;;;3.80;1.00;;;;;;5112144;28;20231;-66
2022/01/06 11:47:28;;;;;;;20.63;10.40;;;3.80;1.00;;;;;;5112201;28;20300;-62
2022/01/06 11:50:05;;;;;;;20.00;10.07;;;3.90;1.00;;;;;;5112055;28;20233;-62
2022/01/06 11:52:32;;;;;;;27.10;12.83;;;3.90;1.00;;;;;;5111756;28;20207;-62
2022/01/06 11:55:00;;;;;;;22.03;12.33;;;3.90;1.00;;;;;;5112384;28;20212;-58
2022/01/06 11:57:31;;;;;;;24.73;14.00;;;3.90;1.00;;;;;;5111617;28;20212;-60
2022/01/06 11:59:59;;;;;;;30.63;15.00;;;3.90;1.00;;;;;;5111610;28;20246;-63
2022/01/06 12:02:26;;;;;;;32.47;15.43;;;3.90;1.00;;;;;;5111883;28;20212;-60
2022/01/06 12:04:57;;;;;;;36.67;17.07;;;4.00;1.00;;;;;;5111668;28;20208;-64
2022/01/06 12:07:24;;;;;;;31.77;17.63;;;4.00;1.00;;;;;;5111958;28;20212;-63
2022/01/06 12:10:02;;;;;;;37.30;16.83;;;4.00;1.00;;;;;;5111235;28;20739;-63
2022/01/06 12:12:33;;;;;;;31.67;15.57;;;3.90;1.00;;;;;;5115785;28;20204;-64
2022/01/06 12:15:08;;;;;;;32.93;17.47;;;3.90;1.00;;;;;;5115942;28;20248;-65
2022/01/06 12:17:35;;;;;;;34.10;17.10;;;3.80;1.00;;;;;;5115553;28;20208;-67
2022/01/06 12:20:03;;;;;;;36.03;17.03;;;3.70;1.00;;;;;;5115618;28;20228;-67
2022/01/06 12:22:30;;;;;;;31.30;15.77;;;3.80;1.00;;;;;;5115122;27;20207;-67
2022/01/06 12:25:01;;;;;;;32.73;16.23;;;3.60;1.00;;;;;;5115122;27;20274;-66
2022/01/06 12:27:28;;;;;;;33.37;16.83;;;3.60;1.00;;;;;;5115245;27;20200;-66
2022/01/06 12:29:56;;;;;;;39.00;17.93;;;3.40;99.90;;;;;;5115453;28;20982;-67
2022/01/06 12:32:23;;;;;;;34.27;16.20;;;3.30;1.00;;;;;;5115513;28;20299;-66
2022/01/06 12:34:53;;;;;;;29.27;14.80;;;3.40;1.00;;;;;;5115363;28;20230;-64
2022/01/06 12:37:26;;;;;;;35.00;17.10;;;3.40;1.00;;;;;;5115383;27;20290;-61
2022/01/06 12:39:53;;;;;;;38.03;17.07;;;3.30;1.00;;;;;;5114866;28;20808;-61
2022/01/06 12:42:21;;;;;;;32.23;16.67;;;3.20;1.00;;;;;;5115505;28;20626;-60
2022/01/06 12:44:47;;;;;;;39.90;19.83;;;3.10;1.00;;;;;;5114933;28;20240;-61
2022/01/06 12:47:14;;;;;;;35.67;18.27;;;3.10;1.00;;;;;;5115153;28;20958;-60
2022/01/06 12:49:41;;;;;;;38.00;18.97;;;3.20;1.00;;;;;;5116304;28;20473;-63
2022/01/06 12:52:09;;;;;;;46.40;18.83;;;3.30;1.00;;;;;;5122226;28;20203;-61
2022/01/06 12:54:38;;;;;;;41.17;18.83;;;3.40;1.00;;;;;;5115910;27;20291;-60
2022/01/06 12:57:06;;;;;;;32.17;17.37;;;3.50;1.00;;;;;;5114677;28;20200;-60
2022/01/06 12:59:37;;;;;;;31.23;17.37;;;3.60;1.00;;;;;;5114618;28;20224;-63
2022/01/06 13:02:06;;;;;;;32.67;16.33;;;3.50;1.00;;;;;;5114913;28;20631;-61
2022/01/06 13:04:35;;;;;;;44.33;18.20;;;3.50;1.00;;;;;;5114842;28;20476;-61
2022/01/06 13:07:04;;;;;;;40.53;18.53;;;3.40;1.00;;;;;;5114645;27;20952;-62